Time;durP1;ratioP1;P1;durP2;ratioP2;P2;SDS_P1;SDS_P2;PMS_P1;PMS_P2;Temp;Humidity;BMP_temperature;BMP_pressure;BME280_temperature;BME280_humidity;BME280_pressure;Samples;Min_cycle;Max_cycle;Signal;HPM_P1;HPM_P2
2021/05/04 00:00:51;;;;;;;9.77;4.95;;;18.50;44.20;;;;;;4938555;29;20200;-82
2021/05/04 00:03:18;;;;;;;8.90;5.03;;;18.50;44.20;;;;;;4955378;29;20292;-82
2021/05/04 00:05:44;;;;;;;7.40;4.57;;;18.50;44.30;;;;;;4938309;29;20604;-82
2021/05/04 00:08:11;;;;;;;9.93;5.05;;;18.50;44.30;;;;;;4955685;29;20165;-82
2021/05/04 00:10:37;;;;;;;7.38;4.85;;;18.50;45.00;;;;;;4938135;29;20368;-83
2021/05/04 00:13:04;;;;;;;9.65;4.45;;;18.50;44.30;;;;;;4922150;29;20207;-82
2021/05/04 00:15:30;;;;;;;9.55;5.07;;;18.40;44.20;;;;;;4938027;29;20600;-83
2021/05/04 00:17:57;;;;;;;9.05;4.63;;;18.50;44.20;;;;;;4955377;29;20169;-83
2021/05/04 00:20:23;;;;;;;10.15;4.88;;;18.40;44.30;;;;;;4938061;29;20154;-82
2021/05/04 00:22:50;;;;;;;8.90;4.63;;;18.40;44.30;;;;;;4955388;29;20162;-83
2021/05/04 00:25:16;;;;;;;7.13;4.38;;;18.40;44.40;;;;;;4937931;29;20157;-83
2021/05/04 00:27:42;;;;;;;9.18;4.85;;;18.40;44.30;;;;;;4922647;29;20532;-83
2021/05/04 00:30:11;;;;;;;9.30;4.97;;;18.40;44.40;;;;;;4955376;29;20629;-83
2021/05/04 00:32:38;;;;;;;8.75;4.97;;;18.40;44.40;;;;;;4937719;29;20174;-82
2021/05/04 00:35:05;;;;;;;8.73;4.82;;;18.40;44.40;;;;;;4938288;29;20216;-83
2021/05/04 00:37:32;;;;;;;8.05;4.63;;;18.40;44.40;;;;;;4922440;29;20185;-83
2021/05/04 00:39:59;;;;;;;7.65;4.75;;;18.40;44.40;;;;;;4955461;29;20240;-82
2021/05/04 00:42:26;;;;;;;8.25;4.90;;;18.40;44.40;;;;;;4938171;29;20157;-82
2021/05/04 00:44:53;;;;;;;9.13;4.32;;;18.40;44.50;;;;;;4922230;29;20158;-83
2021/05/04 00:47:19;;;;;;;8.10;4.75;;;18.40;44.40;;;;;;4938357;29;20699;-83
2021/05/04 00:49:45;;;;;;;8.18;4.63;;;18.40;44.50;;;;;;4937772;29;20165;-82
2021/05/04 00:52:12;;;;;;;10.40;4.85;;;18.40;44.50;;;;;;4921821;29;20172;-83
2021/05/04 00:54:38;;;;;;;9.25;4.85;;;18.40;44.60;;;;;;4921880;29;20236;-83
2021/05/04 00:57:07;;;;;;;10.02;5.35;;;18.40;44.40;;;;;;4937985;29;20185;-83
2021/05/04 00:59:33;;;;;;;9.27;5.45;;;18.30;44.50;;;;;;4923018;29;20165;-83
2021/05/04 01:02:00;;;;;;;8.02;4.55;;;18.30;44.60;;;;;;4954786;29;20184;-82
2021/05/04 01:04:26;;;;;;;9.02;4.93;;;18.30;44.60;;;;;;4954490;29;20157;-82
2021/05/04 01:06:52;;;;;;;11.23;5.18;;;18.30;44.60;;;;;;4937820;29;20153;-83
2021/05/04 01:09:18;;;;;;;9.38;4.60;;;18.30;44.90;;;;;;4938049;29;20997;-83
2021/05/04 01:11:45;;;;;;;8.02;4.65;;;18.30;44.80;;;;;;4958308;29;20169;-83
2021/05/04 01:14:12;;;;;;;7.63;4.35;;;18.30;44.80;;;;;;4941273;29;20174;-83
2021/05/04 01:16:58;;;;;;;8.20;4.70;;;18.30;44.70;;;;;;4941335;29;20236;-83
2021/05/04 01:19:25;;;;;;;7.63;4.68;;;18.30;44.70;;;;;;4939707;29;20327;-83
2021/05/04 01:21:51;;;;;;;6.63;4.50;;;18.30;44.70;;;;;;4941078;29;20161;-83
2021/05/04 01:24:18;;;;;;;10.48;4.95;;;18.30;44.70;;;;;;4941067;29;20157;-83
2021/05/04 01:26:45;;;;;;;7.68;4.75;;;18.30;44.70;;;;;;4941026;29;20165;-83
2021/05/04 01:29:12;;;;;;;10.20;4.80;;;18.30;44.90;;;;;;4924894;29;20192;-82
2021/05/04 01:31:39;;;;;;;11.18;5.15;;;18.30;44.80;;;;;;4940727;29;20184;-82
2021/05/04 01:34:09;;;;;;;8.65;4.57;;;18.30;44.80;;;;;;4940718;29;20166;-83
2021/05/04 01:36:35;;;;;;;8.45;4.60;;;18.30;44.70;;;;;;4940595;29;20197;-82
2021/05/04 01:39:07;;;;;;;8.35;4.68;;;18.30;44.80;;;;;;4941368;29;20245;-82
2021/05/04 01:41:40;;;;;;;7.70;4.35;;;18.30;44.70;;;;;;4940757;29;20167;-83
2021/05/04 01:44:09;;;;;;;8.18;4.95;;;18.30;44.70;;;;;;4940641;29;20165;-83
2021/05/04 01:46:35;;;;;;;9.30;4.70;;;18.30;44.80;;;;;;4924648;29;20243;-82
2021/05/04 01:49:03;;;;;;;8.18;4.60;;;18.30;44.70;;;;;;4957889;29;20166;-82
2021/05/04 01:51:30;;;;;;;10.07;4.70;;;18.30;44.80;;;;;;4924558;29;20169;-82
2021/05/04 01:53:57;;;;;;;7.70;4.40;;;18.30;44.90;;;;;;4940852;29;20150;-83
2021/05/04 01:56:24;;;;;;;8.13;4.65;;;18.20;44.90;;;;;;4940464;29;20220;-82
2021/05/04 01:58:50;;;;;;;7.07;4.50;;;18.20;45.00;;;;;;4940381;29;20153;-82
2021/05/04 02:01:16;;;;;;;8.90;4.63;;;18.30;45.00;;;;;;4940279;29;20166;-83
2021/05/04 02:03:42;;;;;;;7.63;4.43;;;18.30;44.80;;;;;;4957890;29;20655;-82
2021/05/04 02:06:08;;;;;;;9.32;4.85;;;18.30;44.80;;;;;;4924400;29;20170;-83
2021/05/04 02:08:34;;;;;;;7.28;4.50;;;18.20;44.80;;;;;;4940283;29;20157;-82
2021/05/04 02:11:00;;;;;;;9.07;4.63;;;18.30;45.00;;;;;;4940096;29;20232;-83
2021/05/04 02:13:25;;;;;;;9.98;4.97;;;18.20;44.90;;;;;;4924336;29;20161;-83
2021/05/04 02:15:51;;;;;;;7.85;4.38;;;18.20;44.90;;;;;;4924630;29;20185;-83
2021/05/04 02:18:19;;;;;;;8.38;4.90;;;18.30;44.90;;;;;;4940417;29;20161;-82
2021/05/04 02:20:45;;;;;;;9.98;5.22;;;18.30;45.60;;;;;;4939072;29;20162;-83
2021/05/04 02:23:12;;;;;;;7.90;4.80;;;18.20;45.00;;;;;;4957097;29;20165;-83
2021/05/04 02:25:39;;;;;;;9.85;4.80;;;18.20;44.90;;;;;;4957014;29;20208;-82
2021/05/04 02:28:06;;;;;;;8.88;4.50;;;18.20;44.90;;;;;;4957278;29;20162;-82
2021/05/04 02:30:33;;;;;;;7.63;4.80;;;18.20;45.00;;;;;;4956893;29;20165;-82
2021/05/04 02:33:00;;;;;;;8.45;4.60;;;18.20;45.00;;;;;;4939683;29;20173;-83
2021/05/04 02:35:27;;;;;;;7.55;4.60;;;18.20;45.00;;;;;;4939862;29;20161;-82
2021/05/04 02:37:53;;;;;;;7.43;4.70;;;18.20;45.00;;;;;;4939643;29;20177;-83
2021/05/04 02:40:20;;;;;;;8.38;4.72;;;18.20;45.00;;;;;;4939867;29;20241;-83
2021/05/04 02:42:47;;;;;;;6.80;4.43;;;18.20;45.10;;;;;;4939613;29;20158;-83
2021/05/04 02:45:15;;;;;;;10.55;4.30;;;18.20;45.10;;;;;;4939565;29;20154;-82
2021/05/04 02:47:41;;;;;;;8.90;4.85;;;18.20;45.10;;;;;;4939441;29;20170;-83
2021/05/04 02:50:10;;;;;;;8.43;4.97;;;18.20;45.10;;;;;;4956674;29;20701;-83
2021/05/04 02:52:37;;;;;;;6.93;4.40;;;18.20;45.00;;;;;;4956445;29;20165;-83
2021/05/04 02:55:04;;;;;;;8.60;4.80;;;18.20;45.00;;;;;;4939714;29;20165;-82
2021/05/04 02:57:31;;;;;;;7.93;4.40;;;18.20;45.00;;;;;;4939168;29;20185;-83
2021/05/04 02:59:58;;;;;;;7.63;4.70;;;18.20;45.00;;;;;;4923374;29;20177;-83
2021/05/04 03:02:24;;;;;;;8.27;4.55;;;18.20;45.00;;;;;;4939274;29;20212;-82
2021/05/04 03:04:51;;;;;;;9.80;4.60;;;18.20;45.20;;;;;;4956304;29;20173;-83
2021/05/04 03:07:17;;;;;;;8.13;4.60;;;18.20;45.70;;;;;;4956343;29;20157;-83
2021/05/04 03:09:43;;;;;;;6.78;4.18;;;18.20;45.10;;;;;;4923046;29;20228;-83
2021/05/04 03:12:09;;;;;;;7.25;4.60;;;18.20;45.10;;;;;;4939280;29;20162;-82
2021/05/04 03:14:35;;;;;;;8.50;4.63;;;18.20;45.10;;;;;;4938987;29;20286;-83
2021/05/04 03:17:01;;;;;;;6.30;4.20;;;18.20;45.10;;;;;;4955985;29;20185;-82
2021/05/04 03:19:28;;;;;;;7.88;4.38;;;18.20;45.00;;;;;;4956072;29;20165;-82
2021/05/04 03:21:54;;;;;;;7.80;4.65;;;18.20;45.10;;;;;;4938813;29;20158;-82
2021/05/04 03:24:21;;;;;;;6.93;4.40;;;18.20;45.00;;;;;;4938804;29;20213;-82
2021/05/04 03:26:47;;;;;;;8.48;4.82;;;18.10;45.00;;;;;;4938794;29;20177;-83
2021/05/04 03:29:14;;;;;;;9.43;4.90;;;18.20;45.10;;;;;;4956129;29;20200;-82
2021/05/04 03:31:42;;;;;;;7.25;4.20;;;18.20;45.10;;;;;;4938531;28;20301;-83
2021/05/04 03:34:08;;;;;;;7.93;4.93;;;18.10;45.00;;;;;;4938005;29;20177;-82
2021/05/04 03:36:43;;;;;;;8.60;4.60;;;18.20;45.00;;;;;;4955821;29;20232;-82
2021/05/04 03:39:09;;;;;;;7.07;4.15;;;18.10;45.10;;;;;;4938922;29;20160;-83
2021/05/04 03:41:43;;;;;;;7.03;4.32;;;18.10;45.10;;;;;;4923107;29;20243;-82
2021/05/04 03:44:09;;;;;;;9.35;4.55;;;18.20;45.10;;;;;;4938503;29;20157;-83
2021/05/04 03:46:35;;;;;;;9.20;4.53;;;18.20;45.10;;;;;;4938597;29;20187;-83
2021/05/04 03:49:00;;;;;;;7.88;4.38;;;18.10;45.10;;;;;;4938661;29;20212;-82
2021/05/04 03:51:27;;;;;;;9.60;5.15;;;18.10;45.10;;;;;;4955791;29;20169;-83
2021/05/04 03:53:53;;;;;;;7.03;4.50;;;18.10;45.00;;;;;;4938401;29;20204;-83
2021/05/04 03:56:19;;;;;;;7.00;4.45;;;18.10;45.10;;;;;;4922522;29;20205;-83
2021/05/04 03:58:46;;;;;;;8.35;4.45;;;18.10;45.30;;;;;;4922580;29;20188;-83
2021/05/04 04:01:12;;;;;;;6.50;4.32;;;18.10;45.20;;;;;;4938341;29;20518;-83
2021/05/04 04:03:39;;;;;;;7.68;4.55;;;18.10;45.30;;;;;;4938005;29;20160;-82
2021/05/04 04:06:06;;;;;;;7.78;4.60;;;18.10;45.20;;;;;;4955319;29;20161;-82
2021/05/04 04:08:33;;;;;;;7.55;4.07;;;18.10;45.10;;;;;;4955371;29;20166;-83
2021/05/04 04:10:59;;;;;;;6.80;4.72;;;18.10;45.10;;;;;;4955269;28;20755;-82
2021/05/04 04:13:26;;;;;;;6.05;4.07;;;18.10;45.20;;;;;;4938288;29;20157;-83
2021/05/04 04:15:53;;;;;;;8.30;4.65;;;18.10;45.10;;;;;;4955360;29;20210;-82
2021/05/04 04:18:20;;;;;;;8.18;4.47;;;18.10;45.10;;;;;;4937420;29;20161;-83
2021/05/04 04:20:46;;;;;;;8.10;4.45;;;18.10;45.00;;;;;;4938116;29;20158;-83
2021/05/04 04:23:13;;;;;;;8.10;4.22;;;18.10;45.00;;;;;;4938288;29;20617;-83
2021/05/04 04:25:40;;;;;;;7.10;4.25;;;18.10;45.00;;;;;;4937896;29;20187;-82
2021/05/04 04:28:07;;;;;;;7.20;4.22;;;18.10;45.10;;;;;;4938150;29;20158;-83
2021/05/04 04:30:33;;;;;;;8.25;4.78;;;18.10;44.80;;;;;;4938208;29;20166;-82
2021/05/04 04:32:59;;;;;;;5.93;3.55;;;18.10;44.90;;;;;;4938062;29;20162;-82
2021/05/04 04:35:25;;;;;;;7.05;3.88;;;18.20;44.80;;;;;;4923022;29;20490;-81
2021/05/04 04:37:50;;;;;;;7.15;4.13;;;18.20;44.50;;;;;;4955457;29;20164;-81
2021/05/04 04:40:17;;;;;;;7.20;4.45;;;18.20;44.50;;;;;;4937951;29;20154;-82
2021/05/04 04:42:43;;;;;;;7.85;4.25;;;18.20;44.40;;;;;;4938427;29;20193;-81
2021/05/04 04:45:12;;;;;;;5.85;4.20;;;18.30;44.40;;;;;;4940136;29;20551;-81
2021/05/04 04:47:39;;;;;;;7.00;4.18;;;18.30;44.20;;;;;;4959083;29;20161;-82
2021/05/04 04:50:05;;;;;;;7.30;4.10;;;18.30;44.10;;;;;;4959119;29;20216;-81
2021/05/04 04:52:31;;;;;;;6.97;4.43;;;18.30;44.30;;;;;;4925894;29;20174;-82
2021/05/04 04:54:57;;;;;;;7.35;4.18;;;18.30;44.50;;;;;;4942120;29;20292;-82
2021/05/04 04:57:25;;;;;;;6.40;3.75;;;18.30;44.50;;;;;;4959512;29;20654;-82
2021/05/04 04:59:51;;;;;;;6.07;3.90;;;18.20;44.20;;;;;;4926180;29;20173;-82
2021/05/04 05:02:18;;;;;;;7.05;4.15;;;18.30;44.10;;;;;;4942075;29;20165;-82
2021/05/04 05:04:45;;;;;;;6.60;4.10;;;18.30;44.10;;;;;;4959100;29;20162;-82
2021/05/04 05:07:11;;;;;;;6.75;4.18;;;18.30;44.30;;;;;;4941875;29;20181;-83
2021/05/04 05:09:37;;;;;;;5.50;4.07;;;18.30;44.10;;;;;;4942376;29;20288;-82
2021/05/04 05:12:05;;;;;;;7.05;3.90;;;18.30;44.00;;;;;;4926989;29;20173;-82
2021/05/04 05:14:34;;;;;;;7.25;4.15;;;18.30;44.20;;;;;;4941885;29;20220;-82
2021/05/04 05:17:02;;;;;;;6.70;3.67;;;18.30;44.20;;;;;;4941767;29;20178;-82
2021/05/04 05:19:29;;;;;;;7.72;4.03;;;18.30;43.90;;;;;;4959291;29;20157;-82
2021/05/04 05:21:55;;;;;;;6.68;3.90;;;18.30;44.20;;;;;;4941801;29;20157;-83
2021/05/04 05:24:22;;;;;;;7.13;4.03;;;18.30;44.30;;;;;;4941239;29;20629;-83
2021/05/04 05:26:49;;;;;;;7.05;4.13;;;18.30;44.20;;;;;;4941285;29;20189;-82
2021/05/04 05:29:15;;;;;;;6.55;4.18;;;18.30;44.10;;;;;;4941072;29;20206;-82
2021/05/04 05:31:42;;;;;;;5.72;3.65;;;18.30;44.20;;;;;;4958302;29;20257;-82
2021/05/04 05:34:09;;;;;;;7.68;4.25;;;18.30;44.00;;;;;;4958296;29;20704;-83
2021/05/04 05:36:35;;;;;;;7.07;4.05;;;18.30;44.30;;;;;;4958125;29;20189;-83
2021/05/04 05:39:02;;;;;;;8.10;3.88;;;18.30;44.20;;;;;;4925530;29;20174;-83
2021/05/04 05:41:29;;;;;;;6.65;4.03;;;18.30;44.20;;;;;;4925198;29;20264;-83
2021/05/04 05:43:55;;;;;;;7.80;3.97;;;18.30;43.90;;;;;;4958013;29;20157;-83
2021/05/04 05:46:22;;;;;;;5.57;3.78;;;18.30;43.80;;;;;;4941020;29;20269;-83
2021/05/04 05:48:48;;;;;;;5.18;3.67;;;18.30;44.20;;;;;;4941179;29;20162;-83
2021/05/04 05:51:14;;;;;;;8.70;3.97;;;18.30;44.10;;;;;;4925310;29;20219;-83
2021/05/04 05:53:41;;;;;;;7.78;4.22;;;18.30;43.80;;;;;;4940645;29;20213;-83
2021/05/04 05:56:07;;;;;;;5.30;3.72;;;18.40;44.10;;;;;;4941030;29;20192;-83
2021/05/04 05:58:42;;;;;;;4.88;3.60;;;18.40;43.70;;;;;;4941169;29;20161;-83
2021/05/04 06:01:08;;;;;;;5.30;3.33;;;18.40;43.80;;;;;;4924965;29;20173;-83
2021/05/04 06:03:35;;;;;;;6.47;4.13;;;18.40;43.60;;;;;;4924863;29;20268;-81
2021/05/04 06:06:02;;;;;;;4.38;3.38;;;18.50;43.80;;;;;;4958510;29;20185;-83
2021/05/04 06:08:29;;;;;;;5.28;3.83;;;18.50;43.10;;;;;;4940918;29;20212;-83
2021/05/04 06:10:55;;;;;;;5.32;3.50;;;18.50;43.20;;;;;;4941633;29;20244;-83
2021/05/04 06:13:21;;;;;;;5.97;3.80;;;18.50;42.90;;;;;;4942064;29;20261;-83
2021/05/04 06:15:48;;;;;;;5.53;3.58;;;18.60;43.20;;;;;;4941004;29;20205;-83
2021/05/04 06:18:14;;;;;;;5.65;3.50;;;18.50;43.50;;;;;;4925776;29;20169;-83
2021/05/04 06:20:41;;;;;;;5.18;3.47;;;18.60;43.40;;;;;;4958013;29;20182;-84
2021/05/04 06:23:08;;;;;;;5.15;3.60;;;18.50;43.50;;;;;;4924931;29;20547;-83
2021/05/04 06:25:43;;;;;;;5.35;3.22;;;18.60;43.30;;;;;;4924359;29;20173;-83
2021/05/04 06:28:09;;;;;;;5.43;3.40;;;18.60;43.30;;;;;;4940738;29;20161;-83
2021/05/04 06:30:44;;;;;;;6.28;3.60;;;18.70;43.20;;;;;;4909303;29;20225;-83
2021/05/04 06:33:12;;;;;;;5.20;3.72;;;18.70;43.10;;;;;;4941114;29;20164;-83
2021/05/04 06:35:41;;;;;;;5.57;3.30;;;18.70;43.10;;;;;;4957946;29;20519;-83
2021/05/04 06:38:08;;;;;;;5.90;3.97;;;18.70;43.30;;;;;;4941135;29;20150;-83
2021/05/04 06:40:34;;;;;;;6.57;3.85;;;18.70;43.20;;;;;;4925501;29;20260;-83
2021/05/04 06:43:01;;;;;;;5.53;3.67;;;18.70;43.00;;;;;;4925107;29;20180;-83
2021/05/04 06:45:28;;;;;;;6.57;3.42;;;18.70;43.10;;;;;;4923604;29;20552;-83
2021/05/04 06:47:55;;;;;;;6.00;3.22;;;18.70;43.00;;;;;;4956604;29;20168;-83
2021/05/04 06:50:22;;;;;;;6.13;3.35;;;18.70;43.10;;;;;;4923605;29;20177;-82
2021/05/04 06:52:48;;;;;;;5.43;3.42;;;18.70;43.00;;;;;;4939463;29;20213;-83
2021/05/04 06:55:15;;;;;;;4.95;3.00;;;18.70;43.00;;;;;;4956699;29;20242;-83
2021/05/04 06:57:42;;;;;;;4.25;3.30;;;18.70;43.00;;;;;;4956846;29;20350;-83
2021/05/04 07:00:10;;;;;;;4.55;3.40;;;18.70;43.10;;;;;;4939472;29;20158;-83
2021/05/04 07:02:37;;;;;;;5.82;3.72;;;18.70;43.20;;;;;;4939267;29;20176;-82
2021/05/04 07:05:16;;;;;;;5.95;3.38;;;18.70;43.10;;;;;;4924778;29;20174;-83
2021/05/04 07:07:42;;;;;;;5.80;3.50;;;18.70;43.10;;;;;;4939185;29;20172;-83
2021/05/04 07:10:09;;;;;;;5.47;3.65;;;18.70;43.00;;;;;;4939681;29;20241;-83
2021/05/04 07:12:35;;;;;;;6.40;3.42;;;18.80;43.10;;;;;;4923590;29;20244;-83
2021/05/04 07:15:02;;;;;;;6.38;3.53;;;18.80;43.70;;;;;;4923672;29;20180;-83
2021/05/04 07:17:29;;;;;;;5.22;3.45;;;18.80;43.00;;;;;;4939859;29;20193;-83
2021/05/04 07:19:56;;;;;;;5.20;3.33;;;18.80;43.20;;;;;;4939217;29;20157;-83
2021/05/04 07:22:25;;;;;;;4.88;3.20;;;18.80;43.10;;;;;;4924024;29;20602;-82
2021/05/04 07:24:52;;;;;;;4.43;3.33;;;18.80;43.00;;;;;;4939582;29;20157;-83
2021/05/04 07:27:19;;;;;;;6.15;3.50;;;18.70;43.20;;;;;;4938982;29;20158;-82
2021/05/04 07:29:45;;;;;;;4.30;3.17;;;18.80;43.00;;;;;;4938858;29;20153;-83
2021/05/04 07:32:15;;;;;;;5.07;3.55;;;18.80;43.00;;;;;;4939092;29;20173;-83
2021/05/04 07:34:41;;;;;;;4.85;3.30;;;18.90;42.80;;;;;;4939490;29;20277;-83
2021/05/04 07:37:08;;;;;;;4.45;3.28;;;18.90;43.10;;;;;;4922838;29;20279;-83
2021/05/04 07:39:34;;;;;;;4.63;3.42;;;18.90;43.10;;;;;;4956446;29;20160;-83
2021/05/04 07:42:00;;;;;;;4.80;3.30;;;18.90;43.00;;;;;;4927020;29;20223;-84
2021/05/04 07:44:27;;;;;;;5.40;3.78;;;18.80;43.00;;;;;;4944234;29;20180;-83
2021/05/04 07:47:02;;;;;;;6.40;3.47;;;18.90;43.20;;;;;;4943327;29;20166;-83
2021/05/04 07:49:35;;;;;;;5.55;3.42;;;18.80;43.20;;;;;;4941822;29;20159;-83
2021/05/04 07:52:01;;;;;;;4.88;3.10;;;18.80;43.10;;;;;;4925754;29;20220;-83
2021/05/04 07:54:28;;;;;;;5.68;3.53;;;18.80;43.20;;;;;;4940417;29;20184;-82
2021/05/04 07:57:03;;;;;;;4.00;3.10;;;18.80;43.30;;;;;;4940975;29;20252;-82
2021/05/04 07:59:29;;;;;;;4.70;3.17;;;18.80;44.10;;;;;;4942005;29;20153;-82
2021/05/04 08:02:04;;;;;;;6.28;3.58;;;18.80;43.40;;;;;;4940047;29;20160;-82
2021/05/04 08:04:31;;;;;;;5.05;3.33;;;18.80;43.40;;;;;;4956965;29;20172;-81
2021/05/04 08:07:01;;;;;;;5.72;3.83;;;18.80;43.40;;;;;;4923285;29;20540;-82
2021/05/04 08:09:27;;;;;;;5.40;3.33;;;18.90;43.50;;;;;;4939701;29;20653;-81
2021/05/04 08:11:54;;;;;;;5.75;3.20;;;18.80;43.30;;;;;;4922920;29;20736;-82
2021/05/04 08:14:22;;;;;;;5.35;3.42;;;18.80;43.40;;;;;;4922656;29;20208;-82
2021/05/04 08:16:48;;;;;;;4.78;3.35;;;18.80;43.20;;;;;;4937781;29;20280;-81
2021/05/04 08:19:15;;;;;;;4.75;3.08;;;18.80;43.10;;;;;;4941435;29;20190;-82
2021/05/04 08:21:43;;;;;;;10.38;3.40;;;18.90;43.20;;;;;;4958613;29;20605;-82
2021/05/04 08:24:11;;;;;;;7.32;3.40;;;18.90;43.10;;;;;;4926736;29;20193;-82
2021/05/04 08:26:46;;;;;;;4.57;3.40;;;18.90;43.10;;;;;;4945899;29;20173;-81
2021/05/04 08:29:13;;;;;;;4.85;3.35;;;18.90;43.10;;;;;;4939097;29;20172;-82
2021/05/04 08:31:39;;;;;;;4.72;3.22;;;18.90;43.10;;;;;;4938501;29;20209;-83
2021/05/04 08:34:07;;;;;;;5.05;3.28;;;18.90;43.10;;;;;;4939889;29;20162;-84
2021/05/04 08:36:34;;;;;;;4.60;3.10;;;18.90;43.20;;;;;;4924072;29;20728;-84
2021/05/04 08:39:00;;;;;;;7.75;3.80;;;18.90;43.10;;;;;;4939701;29;20189;-84
2021/05/04 08:41:26;;;;;;;6.70;3.58;;;18.90;43.10;;;;;;4908260;29;20188;-84
2021/05/04 08:43:52;;;;;;;5.97;3.53;;;18.80;43.30;;;;;;4940510;29;20161;-84
2021/05/04 08:46:34;;;;;;;5.18;3.30;;;18.80;43.30;;;;;;4926932;29;20170;-85
2021/05/04 08:49:12;;;;;;;4.80;3.25;;;18.90;43.30;;;;;;4945145;29;20216;-83
2021/05/04 08:51:41;;;;;;;5.47;3.60;;;18.80;43.30;;;;;;4957206;29;20157;-84
2021/05/04 08:54:16;;;;;;;5.50;3.20;;;18.80;43.20;;;;;;4925328;29;20162;-83
2021/05/04 08:56:42;;;;;;;5.45;3.63;;;18.90;43.20;;;;;;4942634;29;20259;-84
2021/05/04 08:59:10;;;;;;;5.50;3.28;;;18.80;43.30;;;;;;4943364;29;20154;-84
2021/05/04 09:01:37;;;;;;;4.90;3.55;;;18.80;43.30;;;;;;4927159;29;20165;-84
2021/05/04 09:04:10;;;;;;;4.07;3.30;;;18.80;43.40;;;;;;4925990;29;20277;-84
2021/05/04 09:06:44;;;;;;;4.75;3.25;;;18.80;43.50;;;;;;4925920;29;20171;-84
2021/05/04 09:09:29;;;;;;;6.00;3.28;;;18.80;43.60;;;;;;4939649;28;20168;-84
2021/05/04 09:12:09;;;;;;;5.30;3.20;;;18.70;43.50;;;;;;4930101;29;20162;-84
2021/05/04 09:14:55;;;;;;;4.07;3.00;;;18.70;43.60;;;;;;4944167;29;20162;-84
2021/05/04 09:17:37;;;;;;;4.25;3.22;;;18.70;43.70;;;;;;4940501;29;20272;-83
2021/05/04 09:20:27;;;;;;;4.82;3.30;;;18.70;43.60;;;;;;4944987;29;20165;-83
2021/05/04 09:23:06;;;;;;;4.22;3.03;;;18.80;43.30;;;;;;4945122;29;20564;-84
2021/05/04 09:25:36;;;;;;;6.28;3.40;;;18.70;43.30;;;;;;4912326;29;20169;-84
2021/05/04 09:28:09;;;;;;;3.75;3.00;;;18.80;43.40;;;;;;4931569;29;20158;-85
2021/05/04 09:30:37;;;;;;;6.40;3.30;;;18.80;43.30;;;;;;4929192;29;20165;-84
2021/05/04 09:33:22;;;;;;;4.78;3.40;;;18.90;43.20;;;;;;4963712;29;20162;-84
2021/05/04 09:36:23;;;;;;;9.35;3.58;;;18.90;43.30;;;;;;4952703;29;20158;-84
2021/05/04 09:38:52;;;;;;;3.40;3.10;;;18.90;43.20;;;;;;4949000;29;20181;-84
2021/05/04 09:41:39;;;;;;;4.07;3.30;;;18.90;43.10;;;;;;4963921;29;20154;-84
2021/05/04 09:44:13;;;;;;;4.18;3.08;;;19.00;43.20;;;;;;4962264;29;20605;-84
2021/05/04 09:46:55;;;;;;;4.00;2.90;;;18.90;43.00;;;;;;4946619;29;20247;-84
2021/05/04 09:49:34;;;;;;;4.63;3.17;;;18.90;43.10;;;;;;4934833;29;20256;-85
2021/05/04 09:55:07;;;;;;;5.18;3.30;;;19.00;43.00;;;;;;4952218;29;20162;-84
2021/05/04 09:57:49;;;;;;;3.75;3.03;;;18.90;43.20;;;;;;4937908;29;20185;-85
2021/05/04 10:00:23;;;;;;;5.35;3.03;;;18.90;43.30;;;;;;4921039;29;20162;-85
2021/05/04 10:03:00;;;;;;;4.30;3.20;;;18.90;43.20;;;;;;4951637;29;20157;-85
2021/05/04 10:05:35;;;;;;;4.93;3.05;;;18.90;43.30;;;;;;4936514;29;20184;-85
2021/05/04 10:08:08;;;;;;;5.50;3.50;;;18.90;43.20;;;;;;4932381;29;20245;-84
2021/05/04 10:10:35;;;;;;;4.72;3.20;;;19.00;43.00;;;;;;4931962;29;20642;-84
2021/05/04 10:13:29;;;;;;;4.43;2.83;;;19.00;42.80;;;;;;4931714;29;20185;-84
2021/05/04 10:16:03;;;;;;;4.32;3.20;;;19.00;43.00;;;;;;4949939;29;20165;-85
2021/05/04 10:18:38;;;;;;;3.63;2.60;;;18.90;42.70;;;;;;4937092;29;20165;-82
2021/05/04 10:21:07;;;;;;;5.45;3.30;;;18.90;43.10;;;;;;4935400;29;20695;-83
2021/05/04 10:23:45;;;;;;;5.78;3.20;;;18.90;43.10;;;;;;4928704;29;20247;-82
2021/05/04 10:26:18;;;;;;;4.88;3.20;;;19.00;43.00;;;;;;4954687;29;20201;-83
2021/05/04 10:29:05;;;;;;;4.97;3.13;;;19.00;42.90;;;;;;4953025;29;20166;-83
2021/05/04 10:31:47;;;;;;;4.07;3.10;;;19.10;42.70;;;;;;4931030;29;20170;-82
2021/05/04 10:34:33;;;;;;;5.22;3.08;;;19.10;42.70;;;;;;4934036;29;20176;-83
2021/05/04 10:37:14;;;;;;;4.60;3.25;;;19.10;42.70;;;;;;4933093;29;20615;-84
2021/05/04 10:39:48;;;;;;;4.38;2.80;;;19.00;42.90;;;;;;4953005;29;20177;-84
2021/05/04 10:42:19;;;;;;;5.10;3.17;;;19.00;42.50;;;;;;4954244;29;20176;-83
2021/05/04 10:44:58;;;;;;;4.22;3.10;;;19.10;42.80;;;;;;4950762;29;20185;-82
2021/05/04 10:47:43;;;;;;;5.45;3.25;;;19.00;42.80;;;;;;4969745;29;20156;-82
2021/05/04 10:50:11;;;;;;;4.50;3.00;;;19.00;42.80;;;;;;4968475;29;20189;-82
2021/05/04 10:53:05;;;;;;;5.18;3.40;;;19.10;42.60;;;;;;4936951;29;20217;-82
2021/05/04 10:55:55;;;;;;;5.25;3.10;;;19.10;42.50;;;;;;4949708;29;20564;-82
2021/05/04 10:58:21;;;;;;;6.00;3.25;;;19.10;42.70;;;;;;4951234;29;20169;-83
2021/05/04 11:01:06;;;;;;;5.00;2.78;;;19.00;42.50;;;;;;4951800;29;20161;-82
2021/05/04 11:03:32;;;;;;;5.18;2.92;;;19.10;42.50;;;;;;4951399;29;20191;-83
2021/05/04 11:06:08;;;;;;;5.25;3.60;;;19.10;42.60;;;;;;4968334;29;20213;-83
2021/05/04 11:08:44;;;;;;;4.15;3.30;;;19.10;42.50;;;;;;4935342;29;20168;-83
2021/05/04 11:11:19;;;;;;;4.50;2.92;;;19.10;42.70;;;;;;4950883;29;20270;-82
2021/05/04 11:13:57;;;;;;;3.58;2.95;;;19.10;42.30;;;;;;4966930;29;20176;-83
2021/05/04 11:16:41;;;;;;;4.53;3.08;;;19.10;42.50;;;;;;4949849;29;20219;-83
2021/05/04 11:19:23;;;;;;;3.90;2.83;;;19.10;42.50;;;;;;4952463;29;20154;-83
2021/05/04 11:21:52;;;;;;;3.97;2.70;;;19.10;42.50;;;;;;4949942;29;20181;-84
2021/05/04 11:24:19;;;;;;;5.15;3.20;;;19.10;42.50;;;;;;4934042;29;20173;-83
2021/05/04 11:26:56;;;;;;;3.97;3.10;;;19.10;42.50;;;;;;4966855;29;20240;-83
2021/05/04 11:29:38;;;;;;;4.05;3.00;;;19.00;42.70;;;;;;4966895;29;20197;-83
2021/05/04 11:32:13;;;;;;;3.30;2.80;;;19.00;42.50;;;;;;4949854;29;20157;-83
2021/05/04 11:34:42;;;;;;;4.47;3.10;;;19.00;42.50;;;;;;4950156;29;20173;-84
2021/05/04 11:37:13;;;;;;;4.22;3.13;;;19.00;42.90;;;;;;4931447;29;20652;-84
2021/05/04 11:39:59;;;;;;;4.93;2.90;;;19.00;43.00;;;;;;4927203;29;20203;-84
2021/05/04 11:42:33;;;;;;;3.90;2.95;;;19.00;42.80;;;;;;4948471;29;20310;-83
2021/05/04 11:45:19;;;;;;;4.10;3.22;;;19.00;43.00;;;;;;4932269;29;20173;-83
2021/05/04 11:47:53;;;;;;;3.63;2.95;;;18.90;43.10;;;;;;4952951;29;20176;-84
2021/05/04 11:50:28;;;;;;;5.55;3.10;;;18.90;43.20;;;;;;4935441;29;20177;-83
2021/05/04 11:52:58;;;;;;;3.40;2.90;;;18.90;43.40;;;;;;4932916;28;20180;-83
2021/05/04 11:55:30;;;;;;;4.70;3.08;;;18.80;43.10;;;;;;4932420;29;20269;-82
2021/05/04 11:58:04;;;;;;;5.13;3.22;;;18.80;43.10;;;;;;4934663;29;20196;-84
2021/05/04 12:00:34;;;;;;;3.65;2.97;;;18.80;43.10;;;;;;4934780;29;20187;-83
2021/05/04 12:03:10;;;;;;;5.63;3.10;;;18.80;43.30;;;;;;4950333;29;20150;-83
2021/05/04 12:05:44;;;;;;;4.93;3.08;;;18.80;43.40;;;;;;4950938;29;20154;-83
2021/05/04 12:08:17;;;;;;;3.75;2.83;;;18.80;43.30;;;;;;4951003;29;20196;-84
2021/05/04 12:10:50;;;;;;;4.78;3.15;;;18.80;43.40;;;;;;4947938;29;20232;-84
2021/05/04 12:13:22;;;;;;;4.82;3.45;;;18.80;43.30;;;;;;4948619;29;20166;-83
2021/05/04 12:16:00;;;;;;;5.68;3.35;;;18.80;43.50;;;;;;4945549;29;20164;-83
2021/05/04 12:18:47;;;;;;;5.72;3.20;;;18.80;43.50;;;;;;4945576;29;20145;-83
2021/05/04 12:21:14;;;;;;;3.97;3.30;;;18.80;43.60;;;;;;4929001;29;20173;-83
2021/05/04 12:23:41;;;;;;;4.85;3.20;;;18.80;43.50;;;;;;4931319;29;20166;-83
2021/05/04 12:26:16;;;;;;;3.95;3.00;;;18.80;43.40;;;;;;4931843;29;20549;-84
2021/05/04 12:28:56;;;;;;;3.95;3.15;;;18.80;43.30;;;;;;4933545;29;20161;-83
2021/05/04 12:31:33;;;;;;;4.05;3.00;;;18.90;43.20;;;;;;4934844;29;20173;-83
2021/05/04 12:34:01;;;;;;;3.92;3.17;;;18.80;43.00;;;;;;4935364;29;20169;-83
2021/05/04 12:36:49;;;;;;;5.80;3.35;;;18.90;42.90;;;;;;4933037;29;20225;-84
2021/05/04 12:39:33;;;;;;;3.22;2.67;;;18.90;42.90;;;;;;4949291;28;20220;-83
2021/05/04 12:42:02;;;;;;;4.03;2.90;;;18.90;43.10;;;;;;4963968;28;20164;-83
2021/05/04 12:44:42;;;;;;;5.30;3.70;;;18.90;42.90;;;;;;4930996;29;20528;-82
2021/05/04 12:47:12;;;;;;;4.05;2.85;;;18.90;42.90;;;;;;4949482;29;20161;-83
2021/05/04 12:49:39;;;;;;;3.72;3.17;;;18.80;43.20;;;;;;4950054;29;20241;-84
2021/05/04 12:52:12;;;;;;;4.47;3.30;;;18.80;43.20;;;;;;4932657;29;20169;-83
2021/05/04 12:54:40;;;;;;;3.40;3.05;;;18.90;43.20;;;;;;4932959;29;20640;-82
2021/05/04 12:57:24;;;;;;;4.28;3.00;;;18.80;43.20;;;;;;4949550;29;20193;-84
2021/05/04 12:59:52;;;;;;;3.72;2.80;;;18.80;43.20;;;;;;4933877;29;20193;-83
2021/05/04 13:02:28;;;;;;;3.92;3.08;;;18.90;43.20;;;;;;4933776;29;20162;-82